createdAt,value
2022-10-11T00:01:34.697Z,86.80
2022-10-11T00:04:01.438Z,86.80
2022-10-11T00:06:28.101Z,86.80
2022-10-11T00:08:54.964Z,87.00
2022-10-11T00:11:21.826Z,87.20
2022-10-11T00:13:48.583Z,87.00
2022-10-11T00:16:15.625Z,87.10
2022-10-11T00:18:42.549Z,87.10
2022-10-11T00:21:10.635Z,87.20
2022-10-11T00:23:37.991Z,87.40
2022-10-11T00:26:05.348Z,87.40
2022-10-11T00:28:32.448Z,87.40
2022-10-11T00:30:59.334Z,87.40
2022-10-11T00:33:25.990Z,87.40
2022-10-11T00:35:52.942Z,87.40
2022-10-11T00:38:19.964Z,87.40
2022-10-11T00:40:46.787Z,87.50
2022-10-11T00:43:17.474Z,87.50
2022-10-11T00:45:56.663Z,87.60
2022-10-11T00:48:41.954Z,87.60
2022-10-11T00:51:13.389Z,87.70
2022-10-11T00:53:40.334Z,87.60
2022-10-11T00:56:08.916Z,87.80
2022-10-11T00:58:36.367Z,87.70
2022-10-11T01:01:03.387Z,87.70
2022-10-11T01:03:33.343Z,87.80
2022-10-11T01:06:00.058Z,87.80
2022-10-11T01:08:26.937Z,87.90
2022-10-11T01:10:53.866Z,87.90
2022-10-11T01:13:35.157Z,87.90
2022-10-11T01:16:12.439Z,88.00
2022-10-11T01:18:51.647Z,88.00
2022-10-11T01:21:27.944Z,88.10
2022-10-11T01:24:30.326Z,88.10
2022-10-11T01:27:12.333Z,88.10
2022-10-11T01:29:39.227Z,88.00
2022-10-11T01:32:05.865Z,88.00
2022-10-11T01:34:33.526Z,88.10
2022-10-11T01:37:12.596Z,88.20
2022-10-11T01:39:42.297Z,88.10
2022-10-11T01:42:10.951Z,88.20
2022-10-11T01:44:37.856Z,88.20
2022-10-11T01:47:04.686Z,88.30
2022-10-11T01:49:31.465Z,88.30
2022-10-11T01:51:58.635Z,88.30
2022-10-11T01:55:08.053Z,88.50
2022-10-11T01:57:30.950Z,88.30
2022-10-11T02:00:00.873Z,88.50
2022-10-11T02:02:43.147Z,88.40
2022-10-11T02:05:09.831Z,88.50
2022-10-11T02:07:41.111Z,88.50
2022-10-11T02:10:26.632Z,88.50
2022-10-11T02:13:13.610Z,88.50
2022-10-11T02:15:40.935Z,88.60
2022-10-11T02:18:09.421Z,88.60
2022-10-11T02:20:36.434Z,88.60
2022-10-11T02:23:08.585Z,88.60
2022-10-11T02:25:35.452Z,88.70
2022-10-11T02:28:05.086Z,88.80
2022-10-11T02:30:32.028Z,88.80
2022-10-11T02:32:59.070Z,88.70
2022-10-11T02:35:26.811Z,89.00
2022-10-11T02:37:54.134Z,88.90
2022-10-11T02:40:22.385Z,88.80
2022-10-11T02:42:50.394Z,88.90
2022-10-11T02:45:18.280Z,89.10
2022-10-11T02:47:45.002Z,88.90
2022-10-11T02:50:12.118Z,88.80
2022-10-11T02:52:38.792Z,88.80
2022-10-11T02:55:05.797Z,88.90
2022-10-11T02:57:32.636Z,88.90
2022-10-11T02:59:59.281Z,88.90
2022-10-11T03:02:26.091Z,89.00
2022-10-11T03:04:52.803Z,89.00
2022-10-11T03:07:19.419Z,89.10
2022-10-11T03:09:46.108Z,89.00
2022-10-11T03:12:12.820Z,89.10
2022-10-11T03:14:39.675Z,89.30
2022-10-11T03:17:30.891Z,89.20
2022-10-11T03:19:53.539Z,89.80
2022-10-11T03:22:20.245Z,89.30
2022-10-11T03:24:47.133Z,89.30
2022-10-11T03:27:13.787Z,89.30
2022-10-11T03:29:40.773Z,89.40
2022-10-11T03:32:07.444Z,89.50
2022-10-11T03:34:34.143Z,89.30
2022-10-11T03:37:03.880Z,89.30
2022-10-11T03:39:30.533Z,89.30
2022-10-11T03:41:57.343Z,89.40
2022-10-11T03:44:24.107Z,89.50
2022-10-11T03:46:53.695Z,89.40
2022-10-11T03:49:20.484Z,89.50
2022-10-11T03:51:47.111Z,89.40
2022-10-11T03:54:13.971Z,89.60
2022-10-11T03:56:40.812Z,89.50
2022-10-11T03:59:07.598Z,89.60
2022-10-11T04:01:37.958Z,89.70
2022-10-11T04:04:05.130Z,89.70
2022-10-11T04:06:31.977Z,89.80
2022-10-11T04:08:58.711Z,89.80
2022-10-11T04:11:25.354Z,89.80
2022-10-11T04:13:52.087Z,89.90
2022-10-11T04:16:18.862Z,89.90
2022-10-11T04:18:45.635Z,89.90
2022-10-11T04:21:12.331Z,89.80
2022-10-11T04:23:39.099Z,89.80
2022-10-11T04:26:07.313Z,89.80
2022-10-11T04:28:34.521Z,89.80
2022-10-11T04:31:01.333Z,89.80
2022-10-11T04:33:28.058Z,89.90
2022-10-11T04:35:58.638Z,89.90
2022-10-11T04:38:25.395Z,89.90
2022-10-11T04:40:52.078Z,90.00
2022-10-11T04:43:19.089Z,90.00
2022-10-11T04:45:45.935Z,90.00
2022-10-11T04:48:12.708Z,90.00
2022-10-11T04:50:39.444Z,90.00
2022-10-11T04:53:06.281Z,90.00
2022-10-11T04:55:33.023Z,90.00
2022-10-11T04:57:59.700Z,90.00
2022-10-11T05:00:27.512Z,90.00
2022-10-11T05:02:54.555Z,90.10
2022-10-11T05:05:21.279Z,90.10
2022-10-11T05:07:48.072Z,90.10
2022-10-11T05:10:15.064Z,90.10
2022-10-11T05:12:44.104Z,90.10
2022-10-11T05:15:10.807Z,90.10
2022-10-11T05:17:37.469Z,90.10
2022-10-11T05:20:04.378Z,90.10
2022-10-11T05:22:31.116Z,90.10
2022-10-11T05:24:57.792Z,90.10
2022-10-11T05:27:24.478Z,90.10
2022-10-11T05:29:51.218Z,90.10
2022-10-11T05:32:17.819Z,90.10
2022-10-11T05:34:44.467Z,90.20
2022-10-11T05:37:11.258Z,90.20
2022-10-11T05:39:37.974Z,90.20
2022-10-11T05:42:08.905Z,90.20
2022-10-11T05:44:36.739Z,90.20
2022-10-11T05:47:12.298Z,90.20
2022-10-11T05:49:39.009Z,90.30
2022-10-11T05:52:09.243Z,90.30
2022-10-11T05:54:36.054Z,90.30
2022-10-11T05:57:02.976Z,90.30
2022-10-11T05:59:29.989Z,90.30
2022-10-11T06:02:00.125Z,90.30
2022-10-11T06:04:29.218Z,90.30
2022-10-11T06:09:42.443Z,90.30
2022-10-11T06:12:29.564Z,90.30
2022-10-11T06:14:56.593Z,90.30
2022-10-11T06:17:24.178Z,90.30
2022-10-11T06:19:51.101Z,90.30
2022-10-11T06:22:18.030Z,90.30
2022-10-11T06:24:44.710Z,90.30
2022-10-11T06:27:11.443Z,90.30
2022-10-11T06:29:38.193Z,90.30
2022-10-11T06:32:05.447Z,90.30
2022-10-11T06:34:32.289Z,90.30
2022-10-11T06:36:58.934Z,90.30
2022-10-11T06:39:25.584Z,90.30
2022-10-11T06:41:52.500Z,90.40
2022-10-11T06:44:19.385Z,90.30
2022-10-11T06:46:45.983Z,90.40
2022-10-11T06:49:12.975Z,90.30
2022-10-11T06:51:39.657Z,90.40
2022-10-11T06:54:06.394Z,90.30
2022-10-11T06:56:33.049Z,90.30
2022-10-11T06:59:00.029Z,90.40
2022-10-11T07:01:26.847Z,90.30
2022-10-11T07:03:54.092Z,90.40
2022-10-11T07:06:24.895Z,90.30
2022-10-11T07:08:51.703Z,90.30
2022-10-11T07:11:22.395Z,90.30
2022-10-11T07:13:56.236Z,90.30
2022-10-11T07:16:23.178Z,90.30
2022-10-11T07:18:55.878Z,90.30
2022-10-11T07:21:25.637Z,90.30
2022-10-11T07:23:52.260Z,90.30
2022-10-11T07:26:20.075Z,90.30
2022-10-11T07:28:47.157Z,90.30
2022-10-11T07:31:17.811Z,90.30
2022-10-11T07:33:44.935Z,90.30
2022-10-11T07:36:11.880Z,90.30
2022-10-11T07:38:39.377Z,90.30
2022-10-11T07:41:06.239Z,90.30
2022-10-11T07:43:32.947Z,90.20
2022-10-11T07:46:04.636Z,90.20
2022-10-11T07:48:32.196Z,90.20
2022-10-11T07:51:25.297Z,90.20
2022-10-11T07:53:55.781Z,90.10
2022-10-11T07:56:26.738Z,90.10
2022-10-11T07:58:53.991Z,90.30
2022-10-11T08:01:20.918Z,90.00
2022-10-11T08:03:47.780Z,90.00
2022-10-11T08:06:15.030Z,89.90
2022-10-11T08:08:41.773Z,89.70
2022-10-11T08:11:08.641Z,89.60
2022-10-11T08:13:35.608Z,89.60
2022-10-11T08:16:09.055Z,89.50
2022-10-11T08:18:36.232Z,89.40
2022-10-11T08:21:09.369Z,89.40
2022-10-11T08:23:36.202Z,89.20
2022-10-11T08:26:03.261Z,89.00
2022-10-11T08:28:30.246Z,88.80
2022-10-11T08:30:57.149Z,88.60
2022-10-11T08:33:24.068Z,88.60
2022-10-11T08:35:51.380Z,88.60
2022-10-11T08:38:18.262Z,88.50
2022-10-11T08:41:03.246Z,88.50
2022-10-11T08:43:44.958Z,88.20
2022-10-11T08:46:11.835Z,88.00
2022-10-11T08:48:40.685Z,88.00
2022-10-11T08:51:27.949Z,87.70
2022-10-11T08:54:06.393Z,87.50
2022-10-11T08:56:37.520Z,87.50
2022-10-11T08:59:05.371Z,87.60
2022-10-11T09:01:32.298Z,87.70
2022-10-11T09:04:03.586Z,88.00
2022-10-11T09:06:33.245Z,88.20
2022-10-11T09:09:18.450Z,88.30
2022-10-11T09:12:03.930Z,88.50
2022-10-11T09:14:30.566Z,88.80
2022-10-11T09:17:15.654Z,89.00
2022-10-11T09:19:45.412Z,88.90
2022-10-11T09:22:18.164Z,89.00
2022-10-11T09:24:47.884Z,88.90
2022-10-11T09:27:18.796Z,88.80
2022-10-11T09:29:45.519Z,88.80
2022-10-11T09:32:15.983Z,88.80
2022-10-11T09:34:42.751Z,88.70
2022-10-11T09:37:30.102Z,88.70
2022-10-11T09:40:03.097Z,88.60
2022-10-11T09:42:30.029Z,88.50
2022-10-11T09:44:57.510Z,88.40
2022-10-11T09:47:24.846Z,88.20
2022-10-11T09:49:53.361Z,88.20
2022-10-11T09:52:20.880Z,88.00
2022-10-11T09:54:48.554Z,87.90
2022-10-11T09:57:25.568Z,87.70
2022-10-11T10:00:06.054Z,87.60
2022-10-11T10:02:46.910Z,87.50
2022-10-11T10:05:20.595Z,87.40
2022-10-11T10:08:04.299Z,87.20
2022-10-11T10:10:39.082Z,87.20
2022-10-11T10:13:06.652Z,87.00
2022-10-11T10:15:36.825Z,87.00
2022-10-11T10:18:03.998Z,86.80
2022-10-11T10:20:31.834Z,86.70
2022-10-11T10:22:59.796Z,86.60
2022-10-11T10:25:31.946Z,86.50
2022-10-11T10:27:59.315Z,86.50
2022-10-11T10:30:26.158Z,86.40
2022-10-11T10:32:54.581Z,86.30
2022-10-11T10:35:30.520Z,86.20
2022-10-11T10:38:09.560Z,86.10
2022-10-11T10:41:08.670Z,86.00
2022-10-11T10:43:36.121Z,85.90
2022-10-11T10:46:07.299Z,85.90
2022-10-11T10:49:12.025Z,85.80
2022-10-11T10:51:33.677Z,85.80
2022-10-11T10:54:20.812Z,85.80
2022-10-11T10:56:55.866Z,85.90
2022-10-11T10:59:44.281Z,85.90
2022-10-11T11:02:38.985Z,84.90
2022-10-11T11:05:08.238Z,83.90
2022-10-11T11:07:41.607Z,83.00
2022-10-11T11:10:11.332Z,82.20
2022-10-11T11:12:56.804Z,81.90
2022-10-11T11:15:43.799Z,81.40
2022-10-11T11:18:20.344Z,81.00
2022-10-11T11:21:03.419Z,80.50
2022-10-11T11:23:36.908Z,80.20
2022-10-11T11:26:10.430Z,80.10
2022-10-11T11:28:37.043Z,80.00
2022-10-11T11:31:15.793Z,79.50
2022-10-11T11:34:04.361Z,79.60
2022-10-11T11:36:35.028Z,79.90
2022-10-11T11:39:05.228Z,79.80
2022-10-11T11:41:36.704Z,80.00
2022-10-11T11:44:09.526Z,80.40
2022-10-11T11:46:38.603Z,80.10
2022-10-11T11:49:12.095Z,79.80
2022-10-11T11:51:41.873Z,79.70
2022-10-11T11:54:28.408Z,79.40
2022-10-11T11:56:58.267Z,79.50
2022-10-11T11:59:34.266Z,79.60
2022-10-11T12:02:21.350Z,79.60
2022-10-11T12:04:48.540Z,79.30
2022-10-11T12:07:17.553Z,78.90
2022-10-11T12:09:45.596Z,78.70
2022-10-11T12:12:25.980Z,78.20
2022-10-11T12:14:53.199Z,77.90
2022-10-11T12:17:21.319Z,78.30
2022-10-11T12:20:06.380Z,78.60
2022-10-11T12:22:33.251Z,78.80
2022-10-11T12:25:09.278Z,78.20
2022-10-11T12:27:43.566Z,77.40
2022-10-11T12:30:29.093Z,77.30
2022-10-11T12:33:03.068Z,77.00
2022-10-11T12:35:33.388Z,76.60
2022-10-11T12:38:25.558Z,76.50
2022-10-11T12:41:16.982Z,76.30
2022-10-11T12:43:49.613Z,75.90
2022-10-11T12:46:28.281Z,75.70
2022-10-11T12:48:58.925Z,74.80
2022-10-11T12:51:28.853Z,74.80
2022-10-11T12:54:26.122Z,74.80
2022-10-11T12:57:11.006Z,74.60
2022-10-11T12:59:40.167Z,74.80
2022-10-11T13:02:20.704Z,74.50
2022-10-11T13:04:47.384Z,74.10
2022-10-11T13:07:14.703Z,73.60
2022-10-11T13:09:45.295Z,73.50
2022-10-11T13:12:15.943Z,73.50
2022-10-11T13:14:44.131Z,73.20
2022-10-11T13:17:27.241Z,72.60
2022-10-11T13:20:00.965Z,72.70
2022-10-11T13:22:27.709Z,73.00
2022-10-11T13:25:00.637Z,72.80
2022-10-11T13:27:27.376Z,72.40
2022-10-11T13:29:54.480Z,72.10
2022-10-11T13:32:22.330Z,72.20
2022-10-11T13:34:49.343Z,72.30
2022-10-11T13:37:16.869Z,71.90
2022-10-11T13:39:43.512Z,71.50
2022-10-11T13:42:12.063Z,71.80
2022-10-11T13:44:38.815Z,73.20
2022-10-11T13:47:05.725Z,72.70
2022-10-11T13:49:40.353Z,72.80
2022-10-11T13:52:21.681Z,72.50
2022-10-11T13:55:00.965Z,72.20
2022-10-11T13:57:54.121Z,71.40
2022-10-11T14:00:22.409Z,70.90
2022-10-11T14:02:52.022Z,70.60
2022-10-11T14:05:28.567Z,70.30
2022-10-11T14:07:55.737Z,69.90
2022-10-11T14:10:22.670Z,69.90
2022-10-11T14:12:59.987Z,69.80
2022-10-11T14:15:34.395Z,69.50
2022-10-11T14:18:01.544Z,69.10
2022-10-11T14:20:34.543Z,69.00
2022-10-11T14:23:01.206Z,69.10
2022-10-11T14:25:27.944Z,68.90
2022-10-11T14:27:55.222Z,69.00
2022-10-11T14:30:27.267Z,68.60
2022-10-11T14:32:55.915Z,68.40
2022-10-11T14:35:23.612Z,68.30
2022-10-11T14:37:50.315Z,68.50
2022-10-11T14:40:18.042Z,68.50
2022-10-11T14:42:44.657Z,68.30
2022-10-11T14:45:11.391Z,68.20
2022-10-11T14:47:42.836Z,68.00
2022-10-11T14:50:30.241Z,67.80
2022-10-11T14:52:57.243Z,67.70
2022-10-11T14:55:24.574Z,67.40
2022-10-11T14:57:51.408Z,67.40
2022-10-11T15:00:22.475Z,67.50
2022-10-11T15:02:49.960Z,67.40
2022-10-11T15:05:16.641Z,67.40
2022-10-11T15:07:43.318Z,67.60
2022-10-11T15:10:26.357Z,68.00
2022-10-11T15:12:53.607Z,68.50
2022-10-11T15:15:22.376Z,69.00
2022-10-11T15:17:50.045Z,69.30
2022-10-11T15:20:39.822Z,69.50
2022-10-11T15:23:07.855Z,69.40
2022-10-11T15:25:34.814Z,69.70
2022-10-11T15:28:01.543Z,69.80
2022-10-11T15:30:29.551Z,69.80
2022-10-11T15:32:56.229Z,69.90
2022-10-11T15:35:23.013Z,69.80
2022-10-11T15:37:53.382Z,69.80
2022-10-11T15:40:20.050Z,69.40
2022-10-11T15:42:47.021Z,69.20
2022-10-11T15:45:13.821Z,69.10
2022-10-11T15:47:40.537Z,69.30
2022-10-11T15:50:33.905Z,69.30
2022-10-11T15:53:10.471Z,69.30
2022-10-11T15:55:40.324Z,69.20
2022-10-11T15:58:07.734Z,69.10
2022-10-11T16:00:34.453Z,69.00
2022-10-11T16:03:02.118Z,68.90
2022-10-11T16:05:29.238Z,68.80
2022-10-11T16:07:56.074Z,68.70
2022-10-11T16:10:22.711Z,68.60
2022-10-11T16:12:49.455Z,68.60
2022-10-11T16:15:16.295Z,68.40
2022-10-11T16:17:46.807Z,68.30
2022-10-11T16:20:13.686Z,68.30
2022-10-11T16:22:40.531Z,68.30
2022-10-11T16:25:07.249Z,68.30
2022-10-11T16:27:33.952Z,68.30
2022-10-11T16:30:00.626Z,68.20
2022-10-11T16:32:28.162Z,68.20
2022-10-11T16:34:54.902Z,68.20
2022-10-11T16:37:21.622Z,68.30
2022-10-11T16:39:48.401Z,68.20
2022-10-11T16:42:15.094Z,68.30
2022-10-11T16:44:41.805Z,68.30
2022-10-11T16:47:08.503Z,68.30
2022-10-11T16:49:35.286Z,68.40
2022-10-11T16:52:04.154Z,68.40
2022-10-11T16:54:31.235Z,68.60
2022-10-11T16:56:58.355Z,68.60
2022-10-11T16:59:25.065Z,68.70
2022-10-11T17:01:51.900Z,68.90
2022-10-11T17:04:18.789Z,68.80
2022-10-11T17:06:45.522Z,68.90
2022-10-11T17:09:12.593Z,68.90
2022-10-11T17:11:39.725Z,69.00
2022-10-11T17:14:07.165Z,69.20
2022-10-11T17:16:34.210Z,69.20
2022-10-11T17:19:01.018Z,69.30
2022-10-11T17:21:27.671Z,69.50
2022-10-11T17:23:54.394Z,69.60
2022-10-11T17:26:22.119Z,69.70
2022-10-11T17:28:48.996Z,69.80
2022-10-11T17:31:15.678Z,69.90
2022-10-11T17:33:42.425Z,70.00
2022-10-11T17:36:38.620Z,70.20
2022-10-11T17:39:06.482Z,70.30
2022-10-11T17:41:33.425Z,70.40
2022-10-11T17:44:01.194Z,70.50
2022-10-11T17:46:32.321Z,70.50
2022-10-11T17:48:59.441Z,70.60
2022-10-11T17:51:27.177Z,70.70
2022-10-11T17:53:53.794Z,70.80
2022-10-11T17:56:26.777Z,70.90
2022-10-11T17:58:55.615Z,71.00
2022-10-11T18:01:25.026Z,71.10
2022-10-11T18:03:53.125Z,71.10
2022-10-11T18:06:20.313Z,71.20
2022-10-11T18:08:46.967Z,71.30
2022-10-11T18:11:14.681Z,71.40
2022-10-11T18:13:45.640Z,71.50
2022-10-11T18:16:13.293Z,71.60
2022-10-11T18:18:39.962Z,71.60
2022-10-11T18:21:09.613Z,71.60
2022-10-11T18:23:39.262Z,71.70
2022-10-11T18:26:15.589Z,71.80
2022-10-11T18:28:42.839Z,71.90
2022-10-11T18:31:13.240Z,72.00
2022-10-11T18:33:40.644Z,72.00
2022-10-11T18:36:09.556Z,72.20
2022-10-11T18:38:37.951Z,72.20
2022-10-11T18:41:08.598Z,72.30
2022-10-11T18:43:35.698Z,72.50
2022-10-11T18:46:06.023Z,72.60
2022-10-11T18:48:33.311Z,72.70
2022-10-11T18:51:06.981Z,72.70
2022-10-11T18:53:34.228Z,72.90
2022-10-11T18:56:01.196Z,72.90
2022-10-11T18:58:30.989Z,72.90
2022-10-11T19:01:05.170Z,73.10
2022-10-11T19:03:35.089Z,73.10
2022-10-11T19:06:06.066Z,73.20
2022-10-11T19:08:33.149Z,73.30
2022-10-11T19:11:06.747Z,73.40
2022-10-11T19:13:33.777Z,73.50
2022-10-11T19:16:04.826Z,73.50
2022-10-11T19:18:31.735Z,73.50
2022-10-11T19:21:02.747Z,73.60
2022-10-11T19:23:36.312Z,73.70
2022-10-11T19:26:03.448Z,73.80
2022-10-11T19:28:30.654Z,73.80
2022-10-11T19:31:01.245Z,74.00
2022-10-11T19:33:28.105Z,74.10
2022-10-11T19:35:55.346Z,74.20
2022-10-11T19:40:53.696Z,74.30
2022-10-11T19:43:20.336Z,74.50
2022-10-11T19:45:47.078Z,74.50
2022-10-11T19:48:14.491Z,74.60
2022-10-11T19:50:41.163Z,74.60
2022-10-11T19:53:12.566Z,74.70
2022-10-11T19:55:41.890Z,74.80
2022-10-11T19:58:12.397Z,74.80
2022-10-11T20:00:40.798Z,75.00
2022-10-11T20:03:15.434Z,75.00
2022-10-11T20:05:42.120Z,75.10
2022-10-11T20:08:08.904Z,75.40
2022-10-11T20:10:35.809Z,75.20
2022-10-11T20:13:02.619Z,75.30
2022-10-11T20:15:29.239Z,75.30
2022-10-11T20:17:56.136Z,75.40
2022-10-11T20:20:22.769Z,75.50
2022-10-11T20:22:49.500Z,75.60
2022-10-11T20:25:18.593Z,75.70
2022-10-11T20:27:46.667Z,75.80
2022-10-11T20:30:14.686Z,75.80
2022-10-11T20:32:41.439Z,75.90
2022-10-11T20:35:11.219Z,75.90
2022-10-11T20:37:38.370Z,76.10
2022-10-11T20:40:07.534Z,76.20
2022-10-11T20:42:34.349Z,76.30
2022-10-11T20:45:01.336Z,76.30
2022-10-11T20:47:28.777Z,76.50
2022-10-11T20:49:55.406Z,76.50
2022-10-11T20:52:22.172Z,76.90
2022-10-11T20:54:49.013Z,76.60
2022-10-11T20:57:15.643Z,76.70
2022-10-11T20:59:42.677Z,76.70
2022-10-11T21:02:10.239Z,76.80
2022-10-11T21:04:39.922Z,76.80
2022-10-11T21:07:06.838Z,76.90
2022-10-11T21:09:33.530Z,77.00
2022-10-11T21:12:02.770Z,76.90
2022-10-11T21:14:29.566Z,76.90
2022-10-11T21:16:59.204Z,76.90
2022-10-11T21:19:25.914Z,76.80
2022-10-11T21:21:53.962Z,76.80
2022-10-11T21:24:21.377Z,76.90
2022-10-11T21:26:48.190Z,77.00
2022-10-11T21:29:14.928Z,77.00
2022-10-11T21:31:41.601Z,77.10
2022-10-11T21:34:08.204Z,77.20
2022-10-11T21:36:35.595Z,77.20
2022-10-11T21:39:10.109Z,77.50
2022-10-11T21:41:36.923Z,77.50
2022-10-11T21:44:03.693Z,78.30
2022-10-11T21:47:04.796Z,77.50
2022-10-11T21:49:17.634Z,77.60
2022-10-11T21:51:44.436Z,77.60
2022-10-11T21:54:11.218Z,77.60
2022-10-11T21:56:38.046Z,77.70
2022-10-11T21:59:06.693Z,77.70
2022-10-11T22:01:37.001Z,77.60
2022-10-11T22:04:04.978Z,77.70
2022-10-11T22:06:31.615Z,77.80
2022-10-11T22:08:58.343Z,77.80
2022-10-11T22:11:27.330Z,77.90
2022-10-11T22:13:53.877Z,77.90
2022-10-11T22:16:20.604Z,77.90
2022-10-11T22:18:47.317Z,78.00
2022-10-11T22:21:15.109Z,78.00
2022-10-11T22:23:42.362Z,78.10
2022-10-11T22:26:10.411Z,78.10
2022-10-11T22:28:37.449Z,78.20
2022-10-11T22:31:07.986Z,78.20
2022-10-11T22:33:34.887Z,78.30
2022-10-11T22:36:02.286Z,78.30
2022-10-11T22:38:29.022Z,78.50
2022-10-11T22:40:57.921Z,78.60
2022-10-11T22:43:24.759Z,78.70
2022-10-11T22:45:51.686Z,78.70
2022-10-11T22:48:18.459Z,78.70
2022-10-11T22:50:45.224Z,78.70
2022-10-11T22:53:12.260Z,78.80
2022-10-11T22:55:38.911Z,78.90
2022-10-11T22:58:05.625Z,78.80
2022-10-11T23:00:32.273Z,79.00
2022-10-11T23:02:58.914Z,79.00
2022-10-11T23:05:25.655Z,79.00
2022-10-11T23:07:52.695Z,79.00
2022-10-11T23:10:21.636Z,79.10
2022-10-11T23:12:48.328Z,79.10
2022-10-11T23:15:15.441Z,79.20
2022-10-11T23:17:42.443Z,79.20
2022-10-11T23:20:09.316Z,79.30
2022-10-11T23:22:35.975Z,79.40
2022-10-11T23:25:02.779Z,79.40
2022-10-11T23:27:30.035Z,79.50
2022-10-11T23:29:56.764Z,79.50
2022-10-11T23:32:23.695Z,79.40
2022-10-11T23:34:51.549Z,79.30
2022-10-11T23:37:18.213Z,79.30
2022-10-11T23:39:45.309Z,79.30
2022-10-11T23:42:11.946Z,79.50
2022-10-11T23:44:38.595Z,79.50
2022-10-11T23:47:05.223Z,79.50
2022-10-11T23:49:32.028Z,79.50
2022-10-11T23:51:58.690Z,79.60
2022-10-11T23:54:25.568Z,79.70
2022-10-11T23:56:52.239Z,79.70
2022-10-11T23:59:18.945Z,79.80
